Terminal Aerodrome Forecast
Issued by NWS

Home | Current Version | Previous Version | Graphics & Text | Print | Product List | Glossary On
Versions: 1 2 3 4 5 6 7 8 9 10 11 12 13
000
FTUS45 KGGW 222336
TAFSDY
TAF
KSDY 222336Z 2300/2324 30008KT P6SM SCT250
     FM230600 32009KT P6SM BKN110
     FM230900 31010KT P6SM SCT250
     FM231500 28013KT P6SM SCT250
     FM231800 27019KT P6SM FEW250=

USA.gov is the U.S. government's official web portal to all federal, state and local government web resources and services.